Time;durP1;ratioP1;P1;durP2;ratioP2;P2;SDS_P1;SDS_P2;PMS_P1;PMS_P2;Temp;Humidity;BMP_temperature;BMP_pressure;BME280_temperature;BME280_humidity;BME280_pressure;Samples;Min_cycle;Max_cycle;Signal;HPM_P1;HPM_P2
2022/01/06 00:01:02;;;;;;;29.55;7.68;;;8.50;99.90;;;8.25;67.01;101487.19;5072134;28;20048;-70
2022/01/06 00:03:33;;;;;;;31.63;7.28;;;8.30;99.90;;;8.44;67.47;101483.97;5074783;28;20063;-70
2022/01/06 00:06:06;;;;;;;23.40;7.20;;;8.30;99.90;;;8.56;66.44;101490.28;5074170;28;20048;-70
2022/01/06 00:08:36;;;;;;;31.25;7.72;;;8.40;99.90;;;8.63;66.74;101486.84;5108528;28;20041;-70
2022/01/06 00:11:06;;;;;;;28.70;7.72;;;8.50;99.90;;;8.69;66.56;101502.75;5075339;28;20049;-70
2022/01/06 00:13:46;;;;;;;34.15;7.57;;;8.60;99.90;;;8.67;66.36;101498.34;5075653;28;20045;-70
2022/01/06 00:16:27;;;;;;;26.15;7.65;;;8.60;99.90;;;8.75;66.19;101502.84;5075519;28;20504;-70
2022/01/06 00:24:29;;;;;;;34.40;7.47;;;8.80;99.90;;;8.88;66.13;101503.91;5072920;28;20125;-70
2022/01/06 00:26:57;;;;;;;31.05;7.70;;;8.80;99.90;;;8.69;65.57;101504.53;5072777;28;20048;-70
2022/01/06 00:29:26;;;;;;;26.40;8.05;;;8.70;99.90;;;8.79;65.88;101502.03;5072671;28;20078;-70
2022/01/06 00:31:55;;;;;;;35.15;7.38;;;8.60;99.90;;;8.82;65.71;101496.81;5072674;28;20127;-70
2022/01/06 00:34:25;;;;;;;31.33;7.30;;;8.70;99.90;;;8.72;65.72;101494.00;5071302;28;20051;-70
2022/01/06 00:36:54;;;;;;;28.10;6.78;;;8.60;99.90;;;8.81;65.52;101489.75;5071128;28;20478;-70
2022/01/06 00:39:27;;;;;;;33.15;7.55;;;8.80;99.90;;;8.89;65.21;101495.09;5072331;28;20143;-69
2022/01/06 00:41:58;;;;;;;27.33;6.85;;;8.80;99.90;;;8.86;65.04;101489.81;5071376;28;20506;-70
2022/01/06 00:44:26;;;;;;;28.38;7.90;;;8.80;99.90;;;9.01;64.76;101495.25;5072297;28;20118;-70
2022/01/06 00:46:55;;;;;;;21.65;7.10;;;8.90;99.90;;;8.91;64.82;101469.63;5071033;28;20060;-70
2022/01/06 00:49:25;;;;;;;31.75;7.57;;;8.90;99.90;;;8.83;65.04;101500.31;5072351;28;20064;-71
2022/01/06 00:51:53;;;;;;;23.80;6.30;;;8.80;99.90;;;8.67;65.80;101501.84;5070667;28;20140;-70
2022/01/06 00:54:21;;;;;;;33.13;7.78;;;8.60;99.90;;;8.58;65.92;101514.03;5072127;28;20048;-70
2022/01/06 00:56:50;;;;;;;25.27;7.63;;;8.40;99.90;;;8.57;66.20;101509.63;5070695;28;20080;-70
2022/01/06 00:59:18;;;;;;;34.67;7.55;;;8.40;99.90;;;8.59;66.72;101516.72;5072481;28;20040;-70
2022/01/06 01:01:47;;;;;;;21.00;6.15;;;8.30;99.90;;;8.46;67.11;101524.44;5070581;28;20490;-70
2022/01/06 01:04:15;;;;;;;20.63;6.55;;;8.30;99.90;;;8.73;66.77;101530.94;5071873;28;20135;-70
2022/01/06 01:06:45;;;;;;;28.02;7.18;;;8.50;99.90;;;8.58;66.48;101524.56;5070651;28;20044;-70
2022/01/06 01:09:14;;;;;;;24.80;7.35;;;8.50;99.90;;;8.67;66.75;101535.28;5071638;28;20044;-70
2022/01/06 01:11:42;;;;;;;24.17;5.97;;;8.50;99.90;;;8.69;66.65;101528.28;5070885;28;20056;-70
2022/01/06 01:14:18;;;;;;;17.15;5.55;;;8.50;99.90;;;8.08;66.47;101526.41;5071687;28;20078;-70
2022/01/06 01:16:54;;;;;;;18.95;5.55;;;8.10;99.90;;;7.74;64.99;101519.69;5071852;28;20487;-70
2022/01/06 01:19:22;;;;;;;16.88;4.90;;;7.70;99.90;;;7.72;65.26;101517.91;5070854;28;20044;-70
2022/01/06 01:21:52;;;;;;;15.10;4.80;;;7.60;99.90;;;7.22;64.92;101415.25;5071703;28;20363;-71
2022/01/06 01:24:22;;;;;;;19.88;5.72;;;7.70;99.90;;;7.77;65.25;101516.22;5071878;28;20383;-70
2022/01/06 01:26:50;;;;;;;17.98;5.97;;;7.60;99.90;;;7.79;65.89;101518.03;5070993;28;20140;-70
2022/01/06 01:29:19;;;;;;;19.60;5.88;;;7.60;99.90;;;7.91;66.53;101522.63;5072026;28;20051;-69
2022/01/06 01:31:51;;;;;;;19.35;6.53;;;7.70;99.90;;;7.92;67.18;101529.66;5070627;28;20163;-70
2022/01/06 01:34:24;;;;;;;22.50;5.50;;;7.70;99.90;;;7.77;67.57;101532.03;5071865;28;20123;-70
2022/01/06 01:36:56;;;;;;;18.05;6.05;;;7.70;99.90;;;7.80;68.76;101535.59;5071788;28;20127;-70
2022/01/06 01:39:26;;;;;;;16.52;5.78;;;7.70;99.90;;;7.87;68.98;101536.59;5070437;28;20067;-70
2022/01/06 01:41:54;;;;;;;17.60;5.93;;;7.70;99.90;;;7.87;68.57;101542.75;5071452;28;20124;-70
2022/01/06 01:44:23;;;;;;;23.30;5.95;;;7.70;99.90;;;7.85;68.61;101538.31;5071900;28;20076;-70
2022/01/06 01:47:00;;;;;;;19.17;5.82;;;7.70;99.90;;;7.90;68.62;101552.44;5071627;28;20091;-70
2022/01/06 01:49:43;;;;;;;18.40;6.53;;;7.70;99.90;;;7.94;68.14;101556.91;5070208;28;20041;-70
2022/01/06 01:52:13;;;;;;;16.90;5.53;;;7.70;99.90;;;8.05;68.77;101558.84;5070360;28;20452;-70
2022/01/06 01:54:41;;;;;;;21.23;6.80;;;7.80;99.90;;;8.03;68.51;101557.94;5071305;28;20502;-70
2022/01/06 01:57:09;;;;;;;23.23;6.88;;;7.80;99.90;;;7.90;69.03;101558.59;5069959;28;20472;-70
2022/01/06 01:59:38;;;;;;;20.85;6.20;;;7.70;99.90;;;8.01;68.85;101567.56;5070049;28;20060;-70
2022/01/06 02:02:08;;;;;;;22.23;5.60;;;7.70;99.90;;;8.10;68.39;101567.75;5071734;28;20079;-70
2022/01/06 02:04:37;;;;;;;24.05;6.47;;;7.80;99.90;;;8.12;68.28;101546.69;5069860;28;20417;-69
2022/01/06 02:07:05;;;;;;;20.63;5.38;;;7.90;99.90;;;8.17;68.18;101564.34;5071102;28;20056;-70
2022/01/06 02:09:35;;;;;;;24.15;5.90;;;7.90;99.90;;;8.28;67.60;101567.19;5070871;28;20374;-70
2022/01/06 02:12:06;;;;;;;24.88;6.35;;;8.00;99.90;;;8.30;67.32;101568.13;5071054;28;20036;-70
2022/01/06 02:14:35;;;;;;;22.90;6.00;;;8.00;99.90;;;8.28;66.64;101566.31;5071283;28;20343;-70
2022/01/06 02:17:04;;;;;;;19.33;6.20;;;8.10;99.90;;;8.05;66.92;101566.75;5070995;28;20067;-68
2022/01/06 02:19:32;;;;;;;25.25;7.05;;;7.90;99.90;;;8.13;67.20;101578.31;5071162;28;20410;-69
2022/01/06 02:22:03;;;;;;;28.40;6.90;;;7.90;99.90;;;8.07;67.31;101578.22;5070989;28;20907;-69
2022/01/06 02:24:31;;;;;;;20.52;6.05;;;7.90;99.90;;;7.79;67.70;101569.81;5071082;28;20422;-68
2022/01/06 02:26:59;;;;;;;21.35;6.20;;;7.70;99.90;;;8.12;67.66;101576.56;5103717;28;20476;-69
2022/01/06 02:29:28;;;;;;;20.73;6.30;;;7.80;99.90;;;8.03;67.62;101571.13;5069953;28;20094;-69
2022/01/06 02:31:59;;;;;;;23.33;6.32;;;7.80;99.90;;;8.21;67.26;101574.06;5071107;28;20439;-68
2022/01/06 02:34:27;;;;;;;21.23;6.50;;;7.90;99.90;;;8.30;67.38;101581.28;5071157;28;20433;-69
2022/01/06 02:36:56;;;;;;;18.73;6.32;;;8.10;99.90;;;8.07;67.26;101588.75;5070884;28;20045;-69
2022/01/06 02:39:25;;;;;;;22.25;6.53;;;8.00;99.90;;;8.09;66.81;101592.31;5074405;28;20401;-68
2022/01/06 02:41:54;;;;;;;27.33;7.33;;;7.90;99.90;;;8.14;66.48;101589.75;5073316;28;20105;-69
2022/01/06 02:44:24;;;;;;;19.88;6.10;;;7.90;99.90;;;8.08;66.53;101587.91;5074341;28;20679;-69
2022/01/06 02:46:53;;;;;;;25.85;6.97;;;7.90;99.90;;;8.19;66.67;101593.34;5074646;28;20067;-69
2022/01/06 02:49:22;;;;;;;22.90;6.00;;;7.90;99.90;;;8.18;66.80;101595.13;5074501;28;20189;-69
2022/01/06 02:51:51;;;;;;;24.02;6.30;;;7.90;99.90;;;8.23;66.31;101596.06;5074355;28;20044;-69
2022/01/06 02:54:21;;;;;;;21.80;6.20;;;8.00;99.90;;;8.15;66.58;101592.41;5074297;28;20076;-69
2022/01/06 02:56:52;;;;;;;22.95;6.20;;;7.90;99.90;;;8.04;67.02;101593.09;5074973;28;20064;-70
2022/01/06 02:59:20;;;;;;;20.38;6.88;;;7.90;99.90;;;7.99;67.54;101593.00;5074205;28;20068;-69
2022/01/06 03:01:49;;;;;;;22.27;6.97;;;7.80;99.90;;;8.04;67.62;101598.34;5073205;28;20056;-69
2022/01/06 03:04:19;;;;;;;27.88;6.90;;;7.80;99.90;;;8.10;67.11;101614.28;5107002;28;20040;-68
2022/01/06 03:06:47;;;;;;;22.75;5.65;;;7.80;99.90;;;8.03;67.56;101597.47;5074252;28;20197;-69
2022/01/06 03:09:24;;;;;;;25.02;6.13;;;7.70;99.90;;;8.18;67.29;101597.75;5074548;28;20127;-69
2022/01/06 03:11:54;;;;;;;27.58;6.85;;;7.90;99.90;;;8.28;66.93;101605.84;5074463;28;20041;-68
2022/01/06 03:14:23;;;;;;;24.35;6.95;;;8.00;99.90;;;8.14;66.68;101592.41;5074024;28;20098;-69
2022/01/06 03:16:52;;;;;;;27.05;7.43;;;7.90;99.90;;;8.23;66.92;101599.59;5072636;28;20475;-69
2022/01/06 03:19:20;;;;;;;23.90;6.53;;;7.90;99.90;;;8.30;66.88;101599.75;5074103;28;20079;-69
2022/01/06 03:21:49;;;;;;;19.70;6.13;;;8.00;99.90;;;8.29;66.55;101602.31;5073834;28;20439;-68
2022/01/06 03:24:17;;;;;;;20.13;6.00;;;8.00;99.90;;;8.35;66.94;101587.50;5073717;28;20052;-69
2022/01/06 03:26:46;;;;;;;20.45;5.95;;;8.00;99.90;;;8.40;66.63;101595.50;5073749;28;20116;-68
2022/01/06 03:29:15;;;;;;;22.85;6.18;;;8.10;99.90;;;8.38;66.49;101597.22;5073715;28;20044;-69
2022/01/06 03:31:44;;;;;;;24.70;6.32;;;8.10;99.90;;;8.33;66.49;101591.88;5073674;28;20032;-68
2022/01/06 03:34:13;;;;;;;23.33;6.30;;;8.00;99.90;;;8.27;66.42;101599.66;5073758;28;20110;-69
2022/01/06 03:36:41;;;;;;;21.52;6.07;;;8.00;99.90;;;8.18;66.60;101602.13;5073551;28;20049;-68
2022/01/06 03:39:10;;;;;;;22.25;6.78;;;7.90;99.90;;;8.14;66.85;101600.31;5073785;28;20037;-69
2022/01/06 03:41:38;;;;;;;24.75;6.47;;;7.90;99.90;;;8.16;67.41;101604.75;5073637;28;20060;-70
2022/01/06 03:44:06;;;;;;;20.98;6.85;;;7.90;99.90;;;8.17;66.77;101611.78;5073534;28;20106;-69
2022/01/06 03:46:36;;;;;;;24.30;6.78;;;7.90;99.90;;;8.23;67.08;101617.16;5072136;28;20148;-68
2022/01/06 03:49:05;;;;;;;23.60;6.28;;;7.90;99.90;;;8.28;66.95;101632.19;5072373;28;20467;-69
2022/01/06 03:51:33;;;;;;;24.92;6.80;;;8.00;99.90;;;8.17;67.29;101626.69;5073381;28;20044;-70
2022/01/06 03:54:02;;;;;;;21.60;6.47;;;7.90;99.90;;;8.28;67.23;101634.81;5073084;28;20048;-68
2022/01/06 03:56:30;;;;;;;17.80;6.05;;;8.00;99.90;;;8.31;67.26;101637.50;5073319;28;20052;-69
2022/01/06 03:58:59;;;;;;;22.00;5.95;;;8.00;99.90;;;8.27;67.39;101643.56;5073620;28;20045;-68
2022/01/06 04:01:27;;;;;;;19.83;6.32;;;8.10;99.90;;;8.30;67.56;101644.53;5072929;28;20131;-67
2022/01/06 04:03:58;;;;;;;15.65;5.80;;;8.10;99.90;;;8.48;67.49;101649.25;5072894;28;20063;-69
2022/01/06 04:06:26;;;;;;;16.00;6.00;;;8.20;99.90;;;8.50;68.13;101660.66;5071774;28;20110;-69
2022/01/06 04:08:55;;;;;;;18.10;5.57;;;8.30;99.90;;;8.43;68.22;101653.53;5072841;28;20563;-69
2022/01/06 04:11:23;;;;;;;15.13;6.22;;;8.30;99.90;;;8.51;69.53;101650.16;5072639;28;20398;-69
2022/01/06 04:13:52;;;;;;;17.08;6.03;;;8.30;99.90;;;8.55;70.26;101652.00;5072795;28;20557;-69
2022/01/06 04:16:20;;;;;;;15.77;6.40;;;8.40;99.90;;;8.56;70.28;101651.13;5072772;28;20063;-69
2022/01/06 04:18:49;;;;;;;20.90;6.38;;;8.40;99.90;;;8.50;70.83;101650.13;5073105;28;20044;-69
2022/01/06 04:21:19;;;;;;;16.33;5.85;;;8.30;99.90;;;8.48;71.57;101654.50;5072715;28;20049;-69
2022/01/06 04:23:48;;;;;;;17.85;5.45;;;8.20;99.90;;;8.51;71.92;101649.28;5072952;28;20067;-69
2022/01/06 04:26:17;;;;;;;18.50;5.25;;;8.20;99.90;;;8.35;71.91;101655.13;5073191;28;20080;-69
2022/01/06 04:28:46;;;;;;;13.45;5.22;;;8.20;99.90;;;8.01;73.48;101649.22;5071870;28;20454;-70
2022/01/06 04:31:14;;;;;;;14.65;5.07;;;7.90;99.90;;;8.03;73.42;101646.66;5071142;28;20410;-69
2022/01/06 04:33:43;;;;;;;18.45;4.78;;;7.80;99.90;;;7.65;73.10;101643.28;5071277;28;20052;-69
2022/01/06 04:36:11;;;;;;;15.77;4.90;;;7.50;99.90;;;7.59;72.95;101637.88;5071106;28;20044;-70
2022/01/06 04:38:41;;;;;;;14.68;5.53;;;7.40;99.90;;;7.70;71.70;101633.75;5072883;28;20127;-69
2022/01/06 04:41:09;;;;;;;12.32;5.13;;;7.50;99.90;;;7.64;70.23;101640.63;5072801;28;20127;-69
2022/01/06 04:43:38;;;;;;;11.98;4.65;;;7.50;99.90;;;7.59;70.02;101635.25;5071065;28;20076;-69
2022/01/06 04:46:06;;;;;;;11.55;4.95;;;7.50;99.90;;;7.77;69.07;101635.63;5072381;28;20046;-69
2022/01/06 04:48:37;;;;;;;10.82;4.53;;;7.50;99.90;;;7.77;69.35;101635.63;5072053;28;20043;-69
2022/01/06 04:51:05;;;;;;;15.45;5.20;;;7.60;99.90;;;7.76;68.89;101638.25;5070731;28;20041;-69
2022/01/06 04:53:34;;;;;;;13.48;4.30;;;7.60;99.90;;;7.79;69.37;101643.53;5071957;28;20375;-69
2022/01/06 04:56:04;;;;;;;14.30;4.90;;;7.60;99.90;;;7.71;70.84;101638.13;5071987;28;20048;-68
2022/01/06 04:58:33;;;;;;;13.57;4.88;;;7.60;99.90;;;7.79;71.19;101633.91;5072716;28;20110;-69
2022/01/06 05:01:01;;;;;;;14.02;4.68;;;7.60;99.90;;;7.93;71.38;101642.97;5071610;28;20136;-69
2022/01/06 05:03:30;;;;;;;14.07;5.20;;;7.60;99.90;;;7.89;70.79;101643.75;5071735;28;20401;-69
2022/01/06 05:05:58;;;;;;;18.48;6.10;;;7.70;99.90;;;7.99;71.42;101653.59;5072288;28;20145;-69
2022/01/06 05:08:27;;;;;;;14.77;5.75;;;7.70;99.90;;;8.01;71.35;101654.50;5071620;28;20090;-68
2022/01/06 05:10:56;;;;;;;15.20;6.00;;;7.70;99.90;;;8.14;71.10;101655.63;5071607;28;20454;-66
2022/01/06 05:13:26;;;;;;;17.75;5.75;;;7.90;99.90;;;8.25;70.45;101663.75;5071767;28;20083;-69
2022/01/06 05:15:54;;;;;;;13.63;5.75;;;8.00;99.90;;;8.30;69.91;101667.38;5070663;28;20427;-70
2022/01/06 05:18:22;;;;;;;13.70;5.30;;;8.00;99.90;;;8.28;70.11;101666.44;5071669;28;20041;-68
2022/01/06 05:20:51;;;;;;;13.40;5.15;;;8.00;99.90;;;8.33;69.68;101670.94;5071777;28;20127;-67
2022/01/06 05:23:20;;;;;;;13.40;5.47;;;8.10;99.90;;;8.31;69.78;101669.13;5071817;28;20453;-67
2022/01/06 05:25:48;;;;;;;12.55;5.55;;;8.10;99.90;;;8.31;69.46;101671.75;5072061;28;20041;-67
2022/01/06 05:28:16;;;;;;;16.13;5.05;;;8.00;99.90;;;8.25;69.40;101672.53;5072085;28;20049;-67
2022/01/06 05:30:46;;;;;;;12.85;4.90;;;8.00;99.90;;;8.30;69.76;101670.00;5071791;28;20079;-67
2022/01/06 05:33:17;;;;;;;12.40;5.70;;;8.00;99.90;;;8.21;69.61;101673.31;5071650;28;20040;-67
2022/01/06 05:35:46;;;;;;;14.13;5.10;;;7.90;99.90;;;8.03;69.76;101636.13;5070436;28;20057;-67
2022/01/06 05:38:14;;;;;;;15.05;5.72;;;7.90;99.90;;;8.20;69.57;101675.09;5071947;28;20048;-67
2022/01/06 05:40:43;;;;;;;18.42;5.65;;;7.90;99.90;;;8.16;69.88;101673.25;5072091;28;20059;-67
2022/01/06 05:43:12;;;;;;;14.02;5.43;;;7.90;99.90;;;8.21;69.78;101675.94;5070747;28;20052;-67
2022/01/06 05:45:41;;;;;;;14.38;5.63;;;7.90;99.90;;;8.26;69.78;101673.44;5071540;28;20123;-67
2022/01/06 05:48:11;;;;;;;16.15;5.30;;;8.00;99.90;;;8.27;69.35;101672.56;5071676;28;20045;-67
2022/01/06 05:50:39;;;;;;;14.25;5.53;;;8.00;99.90;;;8.20;69.63;101674.19;5072239;28;20083;-67
2022/01/06 05:53:08;;;;;;;13.02;5.93;;;8.00;99.90;;;8.16;69.35;101683.78;5071251;28;20080;-67
2022/01/06 05:55:36;;;;;;;15.63;5.47;;;8.00;99.90;;;8.15;69.50;101674.09;5071506;28;20102;-66
2022/01/06 05:58:05;;;;;;;14.00;5.30;;;8.00;99.90;;;8.14;69.50;101684.63;5071651;28;20428;-67
2022/01/06 06:00:33;;;;;;;12.63;5.32;;;8.00;99.90;;;8.05;70.00;101687.09;5071627;28;20052;-67
2022/01/06 06:03:02;;;;;;;14.10;5.60;;;7.90;99.90;;;7.92;70.51;101688.59;5071291;28;20046;-66
2022/01/06 06:05:32;;;;;;;12.75;5.85;;;7.80;99.90;;;7.91;70.17;101694.72;5069948;28;20044;-67
2022/01/06 06:08:00;;;;;;;10.20;5.18;;;7.70;99.90;;;7.77;70.68;101687.41;5071197;28;20604;-67
2022/01/06 06:10:29;;;;;;;16.10;5.70;;;7.60;99.90;;;7.64;71.27;101695.91;5071143;28;20044;-67
2022/01/06 06:12:57;;;;;;;14.68;5.60;;;7.50;99.90;;;7.54;71.46;101688.66;5072953;28;20041;-67
2022/01/06 06:15:26;;;;;;;15.27;6.05;;;7.40;99.90;;;7.52;71.71;101706.19;5075126;28;20098;-67
2022/01/06 06:17:54;;;;;;;16.13;5.57;;;7.30;99.90;;;7.45;71.82;101705.19;5075167;28;20044;-67
2022/01/06 06:20:23;;;;;;;16.33;5.70;;;7.30;99.90;;;7.34;71.45;101701.41;5075292;28;20110;-66
2022/01/06 06:22:53;;;;;;;16.52;5.68;;;7.20;99.90;;;7.28;71.59;101706.53;5075426;28;20120;-67
2022/01/06 06:25:21;;;;;;;19.92;6.22;;;7.00;99.90;;;7.24;71.39;101707.31;5075354;28;20044;-67
2022/01/06 06:27:50;;;;;;;14.32;5.57;;;7.00;99.90;;;7.23;71.73;101714.34;5074672;28;20052;-67
2022/01/06 06:30:19;;;;;;;12.02;4.75;;;7.00;99.90;;;7.22;71.55;101717.81;5073532;28;20040;-66
2022/01/06 06:32:52;;;;;;;17.92;6.05;;;7.00;99.90;;;7.16;71.97;101727.31;5073309;28;20045;-66
2022/01/06 06:35:21;;;;;;;13.23;5.95;;;7.00;99.90;;;7.20;72.16;101726.53;5073332;28;20470;-67
2022/01/06 06:37:49;;;;;;;14.23;5.13;;;7.00;99.90;;;7.21;71.88;101725.66;5074450;28;20147;-67
2022/01/06 06:40:22;;;;;;;16.30;6.07;;;7.00;99.90;;;7.15;72.01;101741.31;5074516;28;20052;-67
2022/01/06 06:42:50;;;;;;;17.63;6.32;;;6.90;99.90;;;7.18;71.77;101741.41;5073377;28;20060;-67
2022/01/06 06:45:20;;;;;;;17.27;6.13;;;6.90;99.90;;;7.20;71.70;101740.56;5074739;28;20452;-67
2022/01/06 06:47:48;;;;;;;19.42;6.47;;;7.00;99.90;;;7.25;72.03;101751.19;5074536;28;20482;-66
2022/01/06 06:50:17;;;;;;;21.35;6.25;;;7.00;99.90;;;7.22;71.98;101743.22;5074398;28;20074;-66
2022/01/06 06:52:46;;;;;;;17.02;6.03;;;7.00;99.90;;;7.21;72.10;101737.09;5074457;28;20044;-69
2022/01/06 06:55:15;;;;;;;16.88;6.07;;;7.00;99.90;;;7.22;72.27;101744.13;5074647;28;20049;-71
2022/01/06 06:57:44;;;;;;;14.85;6.07;;;7.00;99.90;;;7.22;71.86;101738.84;5074516;28;20069;-61
2022/01/06 07:00:15;;;;;;;17.83;5.80;;;7.00;99.90;;;7.27;71.99;101737.25;5073129;28;20390;-66
2022/01/06 07:02:44;;;;;;;17.75;6.00;;;7.10;99.90;;;7.26;72.08;101735.44;5072808;28;20132;-66
2022/01/06 07:05:15;;;;;;;21.00;6.07;;;7.10;99.90;;;7.24;71.97;101736.25;5074672;28;20394;-67
2022/01/06 07:07:44;;;;;;;16.67;6.20;;;7.00;99.90;;;7.22;72.01;101746.75;5074194;28;20044;-67
2022/01/06 07:10:14;;;;;;;19.80;5.85;;;7.00;99.90;;;7.20;72.20;101743.19;5106828;28;20052;-68
2022/01/06 07:12:46;;;;;;;22.33;6.25;;;6.90;99.90;;;7.21;72.27;101730.94;5074339;28;20047;-68
2022/01/06 07:15:17;;;;;;;10.80;5.80;;;7.00;99.90;;;7.23;71.96;101737.13;5073283;28;20567;-68
2022/01/06 07:17:46;;;;;;;23.63;6.72;;;7.00;99.90;;;7.24;72.19;101741.50;5074347;28;20044;-69
2022/01/06 07:20:15;;;;;;;29.92;6.88;;;7.00;99.90;;;7.24;72.04;101747.66;5072854;28;20049;-69
2022/01/06 07:22:43;;;;;;;18.13;6.38;;;7.00;99.90;;;7.27;72.19;101742.50;5073937;28;20328;-69
2022/01/06 07:25:12;;;;;;;19.75;6.85;;;7.00;99.90;;;7.30;72.43;101744.28;5073668;28;20508;-66
2022/01/06 07:27:40;;;;;;;15.57;6.55;;;7.10;99.90;;;7.27;72.48;101738.97;5073700;28;20044;-67
2022/01/06 07:30:12;;;;;;;21.02;7.43;;;7.10;99.90;;;7.28;72.44;101735.47;5073902;28;20196;-68
2022/01/06 07:32:45;;;;;;;16.05;6.70;;;7.10;99.90;;;7.29;72.50;101739.91;5073654;28;20402;-67
2022/01/06 07:35:15;;;;;;;18.58;7.03;;;7.10;99.90;;;7.30;72.32;101747.81;5074186;28;20109;-69
2022/01/06 07:37:44;;;;;;;15.07;5.88;;;7.10;99.90;;;7.18;72.83;101746.66;5073552;28;20045;-68
2022/01/06 07:40:16;;;;;;;13.50;5.53;;;7.00;99.90;;;7.05;73.96;101741.94;5073749;28;20114;-68
2022/01/06 07:42:45;;;;;;;14.68;6.28;;;6.90;99.90;;;7.03;73.88;101755.06;5072265;28;20117;-68
2022/01/06 07:45:15;;;;;;;18.55;7.05;;;6.80;99.90;;;6.97;73.71;101747.03;5073243;28;20419;-67
2022/01/06 07:47:55;;;;;;;16.67;6.60;;;6.80;99.90;;;6.37;73.46;101640.38;5073205;28;20109;-67
2022/01/06 07:50:26;;;;;;;15.73;7.00;;;6.80;99.90;;;7.08;73.61;101760.44;5073363;28;20076;-67
2022/01/06 07:52:54;;;;;;;12.70;6.07;;;6.90;99.90;;;7.11;73.38;101752.63;5073282;28;20041;-68
2022/01/06 07:55:23;;;;;;;17.45;6.18;;;6.90;99.90;;;7.06;74.09;101763.03;5072820;28;20048;-66
2022/01/06 07:57:54;;;;;;;12.32;5.75;;;6.80;99.90;;;7.00;73.80;101764.63;5073091;28;20482;-68
2022/01/06 08:00:24;;;;;;;16.98;5.63;;;6.80;99.90;;;6.83;73.83;101760.69;5073159;28;20433;-68
2022/01/06 08:02:53;;;;;;;;;;;6.70;99.90;;;6.84;74.09;101770.34;5073660;28;20128;-67
2022/01/06 08:05:25;;;;;;;12.63;5.60;;;6.60;99.90;;;6.91;74.46;101783.69;5072992;28;20397;-67
2022/01/06 08:07:54;;;;;;;18.13;6.20;;;6.60;99.90;;;6.95;74.68;101782.06;5072927;28;20052;-67
2022/01/06 08:10:23;;;;;;;13.52;5.43;;;6.70;99.90;;;6.79;74.44;101751.84;5072871;28;20044;-68
2022/01/06 08:12:52;;;;;;;17.88;5.90;;;6.70;99.90;;;7.10;74.26;101783.28;5072517;28;20110;-70
2022/01/06 08:15:20;;;;;;;15.32;5.60;;;6.90;99.90;;;7.29;73.91;101790.78;5071446;28;20052;-69
2022/01/06 08:17:50;;;;;;;19.48;6.57;;;7.00;99.90;;;7.55;73.31;101796.63;5072803;28;20059;-69
2022/01/06 08:20:18;;;;;;;18.77;6.73;;;7.20;99.90;;;7.74;73.14;101792.69;5072461;28;20366;-69
2022/01/06 08:22:47;;;;;;;21.98;6.32;;;7.50;99.90;;;7.92;72.23;101796.56;5071318;28;20302;-69
2022/01/06 08:25:15;;;;;;;18.65;6.22;;;7.70;99.90;;;7.99;71.33;101789.72;5072406;28;20136;-70
2022/01/06 08:27:44;;;;;;;17.65;6.18;;;7.80;99.90;;;8.08;70.75;101790.78;5072446;28;20052;-69
2022/01/06 08:30:13;;;;;;;17.17;6.68;;;7.90;99.90;;;8.25;70.34;101808.69;5072651;28;20057;-70
2022/01/06 08:32:41;;;;;;;23.77;6.97;;;8.00;99.90;;;8.47;70.17;101810.91;5072237;28;20040;-69
2022/01/06 08:35:12;;;;;;;17.27;6.00;;;8.20;99.90;;;8.64;69.37;101796.28;5072136;28;20075;-70
2022/01/06 08:37:40;;;;;;;18.25;6.18;;;8.40;99.90;;;8.73;68.67;101799.09;5071131;28;20049;-69
2022/01/06 08:40:10;;;;;;;16.23;6.10;;;8.50;99.90;;;8.77;68.36;101806.19;5072293;28;20053;-69
2022/01/06 08:42:39;;;;;;;19.48;6.38;;;8.50;99.90;;;8.82;68.02;101800.16;5072270;28;20040;-70
2022/01/06 08:45:09;;;;;;;15.38;6.20;;;8.60;99.90;;;8.84;68.16;101793.16;5072147;28;20545;-69
2022/01/06 08:47:38;;;;;;;16.27;6.15;;;8.70;99.90;;;8.89;68.08;101798.47;5072741;28;20055;-69
2022/01/06 08:50:08;;;;;;;14.13;6.43;;;8.70;99.90;;;8.96;67.89;101800.38;5072046;28;20052;-69
2022/01/06 08:52:39;;;;;;;17.73;5.50;;;8.80;99.90;;;8.84;68.34;101787.88;5072022;28;20547;-69
2022/01/06 08:55:10;;;;;;;15.43;5.55;;;8.70;99.90;;;8.96;68.58;101813.59;5072097;28;20041;-68
2022/01/06 08:57:39;;;;;;;18.67;6.35;;;8.70;99.90;;;8.93;68.10;101811.78;5070900;28;20052;-69
2022/01/06 09:00:11;;;;;;;16.63;6.85;;;8.70;99.90;;;8.88;67.87;101815.19;5072177;28;20064;-69
2022/01/06 09:02:40;;;;;;;21.33;6.38;;;8.70;99.90;;;8.82;68.20;101815.97;5072473;28;20048;-70
2022/01/06 09:05:10;;;;;;;14.48;6.63;;;8.70;99.90;;;8.71;68.65;101812.25;5072483;28;20067;-70
2022/01/06 09:07:40;;;;;;;17.40;6.60;;;8.60;99.90;;;8.70;68.42;101820.13;5072149;28;20518;-70
2022/01/06 09:10:09;;;;;;;18.92;5.90;;;8.50;99.90;;;8.71;68.70;101821.94;5072270;28;20033;-69
2022/01/06 09:12:39;;;;;;;18.52;7.15;;;8.50;99.90;;;8.70;68.04;101815.75;5072003;28;20052;-69
2022/01/06 09:15:10;;;;;;;18.85;6.65;;;8.40;99.90;;;8.75;68.61;101815.84;5072094;28;20109;-70
2022/01/06 09:17:38;;;;;;;;;;;8.50;99.90;;;9.20;69.24;101813.97;5072487;28;20124;-68
2022/01/06 09:20:09;;;;;;;18.70;6.55;;;8.80;99.90;;;9.55;67.84;101817.16;5071713;28;19925;-69
2022/01/06 09:22:42;;;;;;;15.82;6.75;;;9.20;99.90;;;9.89;66.79;101814.16;5070879;28;20053;-70
2022/01/06 09:25:13;;;;;;;11.75;5.38;;;9.60;99.90;;;10.25;66.37;101821.69;5071271;28;20045;-70
2022/01/06 09:27:43;;;;;;;13.00;5.63;;;9.90;99.90;;;10.67;65.39;101831.00;5072924;28;20055;-71
2022/01/06 09:30:12;;;;;;;17.55;5.22;;;10.40;99.90;;;11.03;64.34;101824.28;5072153;28;20048;-71
2022/01/06 09:32:41;;;;;;;19.30;6.35;;;10.80;99.90;;;11.36;63.54;101825.44;5071626;28;20060;-69
2022/01/06 09:35:10;;;;;;;17.00;6.00;;;11.10;99.90;;;11.78;62.82;101823.13;5070028;28;20075;-70
2022/01/06 09:37:40;;;;;;;17.45;5.68;;;11.60;99.90;;;12.19;62.11;101825.09;5071615;28;20094;-70
2022/01/06 09:40:11;;;;;;;15.73;5.20;;;12.00;99.90;;;12.51;61.33;101828.75;5071584;28;20114;-70
2022/01/06 09:42:42;;;;;;;19.38;5.68;;;12.30;99.90;;;12.79;60.80;101835.03;5071338;28;20278;-69
2022/01/06 09:45:12;;;;;;;13.55;5.60;;;12.60;99.90;;;13.13;60.11;101835.09;5070355;28;20052;-69
2022/01/06 09:47:41;;;;;;;13.20;5.20;;;13.00;99.90;;;13.21;59.48;101837.75;5074538;28;20044;-68
2022/01/06 09:50:13;;;;;;;15.20;5.70;;;13.10;99.90;;;13.24;59.14;101822.69;5074431;28;20052;-69
2022/01/06 09:52:42;;;;;;;19.30;5.57;;;13.20;99.90;;;13.30;58.72;101843.06;5075457;28;20159;-67
2022/01/06 09:55:12;;;;;;;14.27;5.80;;;13.10;99.90;;;13.29;59.17;101842.22;5075055;28;20086;-68
2022/01/06 09:57:40;;;;;;;15.20;5.93;;;13.10;99.90;;;13.44;58.99;101846.63;5074263;28;20301;-68
2022/01/06 10:00:11;;;;;;;14.15;5.65;;;13.20;99.90;;;13.83;58.91;101846.56;5075268;28;20056;-68
2022/01/06 10:02:40;;;;;;;13.70;5.65;;;13.50;99.90;;;13.98;57.72;101840.31;5075522;28;20142;-68
2022/01/06 10:05:09;;;;;;;13.70;5.38;;;13.70;99.90;;;14.28;57.43;101842.94;5075263;28;20149;-68
2022/01/06 10:07:39;;;;;;;13.95;5.20;;;14.00;99.90;;;14.40;56.36;101851.72;5075348;28;20040;-67
2022/01/06 10:10:13;;;;;;;13.88;5.03;;;14.20;99.90;;;14.55;55.31;101844.56;5075396;28;20048;-67
2022/01/06 10:12:43;;;;;;;12.20;4.63;;;14.30;99.90;;;14.28;54.81;101842.94;5075239;28;20081;-69
2022/01/06 10:15:20;;;;;;;10.70;4.32;;;14.10;99.90;;;14.18;55.04;101842.06;5075596;28;20049;-69
2022/01/06 10:17:50;;;;;;;12.25;4.32;;;13.90;99.90;;;14.03;54.73;101838.56;5075516;28;20106;-69
2022/01/06 10:20:22;;;;;;;13.05;5.10;;;13.90;99.90;;;13.90;54.66;101843.00;5075471;28;20080;-69
2022/01/06 10:22:54;;;;;;;14.68;4.65;;;13.70;99.90;;;13.65;54.67;101837.72;5074894;28;20044;-69
2022/01/06 10:25:28;;;;;;;10.77;4.53;;;13.40;99.90;;;13.40;55.16;101835.09;5075009;28;20071;-69
2022/01/06 10:28:17;;;;;;;12.77;5.43;;;13.20;99.90;;;13.23;55.23;101834.22;5075850;28;20072;-68
2022/01/06 10:30:49;;;;;;;17.30;5.10;;;13.00;99.90;;;12.94;55.49;101835.94;5075711;28;20434;-68
2022/01/06 10:33:18;;;;;;;10.95;4.22;;;12.70;99.90;;;12.56;55.74;101835.84;5075053;28;20476;-69